createdAt,value
2023-01-02T00:01:06.339Z,32.28
2023-01-02T00:03:33.748Z,30.25
2023-01-02T00:06:08.657Z,29.10
2023-01-02T00:08:35.947Z,29.15
2023-01-02T00:11:03.228Z,29.75
2023-01-02T00:13:33.433Z,30.08
2023-01-02T00:16:00.784Z,29.58
2023-01-02T00:18:29.848Z,30.60
2023-01-02T00:20:57.192Z,28.55
2023-01-02T00:23:24.396Z,28.85
2023-01-02T00:25:51.735Z,29.00
2023-01-02T00:28:18.940Z,30.52
2023-01-02T00:30:49.226Z,29.73
2023-01-02T00:33:17.595Z,31.35
2023-01-02T00:35:47.694Z,31.25
2023-01-02T00:38:15.417Z,30.60
2023-01-02T00:40:48.387Z,32.10
2023-01-02T00:43:17.893Z,32.83
2023-01-02T00:45:48.977Z,32.45
2023-01-02T00:48:16.612Z,32.83
2023-01-02T00:50:44.975Z,35.05
2023-01-02T00:53:18.345Z,34.00
2023-01-02T00:55:46.568Z,34.90
2023-01-02T00:58:14.406Z,32.83
2023-01-02T01:00:47.445Z,33.85
2023-01-02T01:03:15.045Z,35.20
2023-01-02T01:05:42.375Z,34.83
2023-01-02T01:08:09.985Z,34.80
2023-01-02T01:10:38.328Z,34.22
2023-01-02T01:13:06.415Z,36.17
2023-01-02T01:15:34.875Z,35.22
2023-01-02T01:18:02.241Z,36.05
2023-01-02T01:20:29.735Z,35.17
2023-01-02T01:23:00.462Z,37.42
2023-01-02T01:25:27.724Z,37.22
2023-01-02T01:27:55.096Z,36.40
2023-01-02T01:30:22.472Z,37.28
2023-01-02T01:32:52.759Z,38.40
2023-01-02T01:35:22.732Z,38.67
2023-01-02T01:37:50.467Z,39.60
2023-01-02T01:40:20.771Z,41.10
2023-01-02T01:42:50.250Z,40.60
2023-01-02T01:45:18.885Z,37.75
2023-01-02T01:47:52.419Z,36.70
2023-01-02T01:50:25.674Z,37.45
2023-01-02T01:52:59.147Z,36.63
2023-01-02T01:55:32.168Z,37.70
2023-01-02T01:58:16.701Z,36.45
2023-01-02T02:00:44.464Z,38.05
2023-01-02T02:03:15.713Z,38.00
2023-01-02T02:05:44.251Z,37.75
2023-01-02T02:08:18.299Z,38.70
2023-01-02T02:10:49.650Z,38.00
2023-01-02T02:13:17.882Z,39.03
2023-01-02T02:16:06.803Z,36.65
2023-01-02T02:18:49.472Z,40.38
2023-01-02T02:21:42.520Z,36.42
2023-01-02T02:24:28.503Z,35.65
2023-01-02T02:27:18.670Z,37.15
2023-01-02T02:30:12.302Z,36.53
2023-01-02T02:32:57.814Z,36.05
2023-01-02T02:35:54.493Z,32.90
2023-01-02T02:38:59.842Z,32.78
2023-01-02T02:41:34.765Z,33.15
2023-01-02T02:44:20.506Z,32.80
2023-01-02T02:47:06.285Z,34.22
2023-01-02T02:50:02.748Z,34.00
2023-01-02T02:52:36.410Z,33.35
2023-01-02T02:55:11.144Z,33.50
2023-01-02T02:57:40.550Z,32.88
2023-01-02T03:00:14.729Z,32.55
2023-01-02T03:02:42.099Z,32.50
2023-01-02T03:05:16.687Z,31.63
2023-01-02T03:08:01.754Z,31.45
2023-01-02T03:10:58.091Z,32.00
2023-01-02T03:13:44.195Z,31.60
2023-01-02T03:16:14.521Z,31.17
2023-01-02T03:18:52.524Z,30.73
2023-01-02T03:21:40.957Z,28.88
2023-01-02T03:24:13.882Z,27.15
2023-01-02T03:29:18.342Z,28.15
2023-01-02T03:31:51.216Z,30.23
2023-01-02T03:36:58.178Z,27.40
2023-01-02T03:39:29.388Z,29.48
2023-01-02T03:42:05.013Z,29.58
2023-01-02T03:44:40.689Z,30.15
2023-01-02T03:47:26.912Z,29.65
2023-01-02T03:49:57.072Z,29.05
2023-01-02T03:52:26.229Z,29.98
2023-01-02T03:54:55.408Z,30.83
2023-01-02T03:57:37.093Z,29.65
2023-01-02T04:00:14.828Z,29.02
2023-01-02T04:03:10.970Z,28.75
2023-01-02T04:06:04.271Z,28.70
2023-01-02T04:09:00.283Z,26.63
2023-01-02T04:11:30.363Z,26.98
2023-01-02T04:16:38.919Z,25.17
2023-01-02T04:19:13.078Z,26.35
2023-01-02T04:21:43.123Z,25.15
2023-01-02T04:24:18.966Z,23.30
2023-01-02T04:26:51.857Z,22.67
2023-01-02T04:31:56.280Z,22.83
2023-01-02T04:34:26.582Z,22.77
2023-01-02T04:36:59.344Z,22.23
2023-01-02T04:39:30.793Z,22.83
2023-01-02T04:41:58.184Z,21.67
2023-01-02T04:44:25.571Z,22.98
2023-01-02T04:46:53.006Z,21.05
2023-01-02T04:49:20.516Z,22.23
2023-01-02T04:51:48.046Z,24.05
2023-01-02T04:54:15.575Z,21.27
2023-01-02T04:56:45.125Z,22.45
2023-01-02T04:59:14.875Z,22.05
2023-01-02T05:01:43.053Z,22.40
2023-01-02T05:04:13.500Z,21.85
2023-01-02T05:06:41.075Z,21.02
2023-01-02T05:09:11.348Z,20.58
2023-01-02T05:11:38.718Z,21.13
2023-01-02T05:14:07.780Z,23.73
2023-01-02T05:16:35.345Z,19.50
2023-01-02T05:19:02.812Z,19.08
2023-01-02T05:21:48.350Z,21.02
2023-01-02T05:24:15.814Z,21.15
2023-01-02T05:26:43.578Z,19.80
2023-01-02T05:29:11.022Z,18.90
2023-01-02T05:31:38.408Z,20.20
2023-01-02T05:34:05.892Z,18.45
2023-01-02T05:36:33.296Z,20.17
2023-01-02T05:39:01.926Z,19.23
2023-01-02T05:41:29.255Z,20.70
2023-01-02T05:43:58.539Z,19.20
2023-01-02T05:46:25.920Z,18.27
2023-01-02T05:48:53.367Z,18.08
2023-01-02T05:51:32.308Z,17.58
2023-01-02T05:53:59.784Z,18.38
2023-01-02T05:56:28.824Z,17.92
2023-01-02T05:58:57.020Z,18.33
2023-01-02T06:01:29.881Z,18.00
2023-01-02T06:04:02.930Z,18.38
2023-01-02T06:06:32.910Z,17.42
2023-01-02T06:09:03.536Z,19.25
2023-01-02T06:11:31.915Z,26.25
2023-01-02T06:14:05.751Z,19.65
2023-01-02T06:16:36.257Z,21.10
2023-01-02T06:19:08.790Z,20.60
2023-01-02T06:21:36.217Z,20.95
2023-01-02T06:24:03.671Z,19.13
2023-01-02T06:26:34.830Z,16.50
2023-01-02T06:29:03.867Z,20.95
2023-01-02T06:31:34.371Z,21.27
2023-01-02T06:34:04.771Z,20.02
2023-01-02T06:36:34.683Z,20.33
2023-01-02T06:39:02.403Z,20.58
2023-01-02T06:41:29.945Z,18.45
2023-01-02T06:43:57.434Z,19.42
2023-01-02T06:46:25.347Z,19.48
2023-01-02T06:48:53.016Z,19.42
2023-01-02T06:51:22.722Z,19.33
2023-01-02T06:53:50.267Z,18.50
2023-01-02T06:56:19.863Z,20.23
2023-01-02T06:58:48.114Z,16.98
2023-01-02T07:01:19.986Z,20.98
2023-01-02T07:03:47.524Z,52.27
2023-01-02T07:06:17.517Z,53.83
2023-01-02T07:08:50.395Z,46.50
2023-01-02T07:11:21.053Z,19.05
2023-01-02T07:13:51.918Z,17.80
2023-01-02T07:16:21.046Z,17.08
2023-01-02T07:18:49.506Z,18.52
2023-01-02T07:21:18.415Z,19.45
2023-01-02T07:23:46.302Z,20.80
2023-01-02T07:26:14.259Z,19.58
2023-01-02T07:28:42.169Z,17.63
2023-01-02T07:31:13.824Z,18.02
2023-01-02T07:33:41.711Z,16.08
2023-01-02T07:36:13.362Z,17.30
2023-01-02T07:38:40.823Z,17.70
2023-01-02T07:41:19.574Z,18.40
2023-01-02T07:43:51.006Z,17.90
2023-01-02T07:46:19.860Z,15.30
2023-01-02T07:48:48.502Z,16.35
2023-01-02T07:51:19.689Z,17.60
2023-01-02T07:53:50.084Z,16.98
2023-01-02T07:56:17.358Z,19.58
2023-01-02T07:58:44.780Z,18.60
2023-01-02T08:01:13.469Z,16.75
2023-01-02T08:03:41.534Z,16.90
2023-01-02T08:06:16.776Z,18.05
2023-01-02T08:08:44.574Z,16.65
2023-01-02T08:11:17.758Z,18.98
2023-01-02T08:13:45.117Z,17.10
2023-01-02T08:16:18.422Z,18.00
2023-01-02T08:18:49.137Z,16.55
2023-01-02T08:21:16.674Z,16.17
2023-01-02T08:23:44.194Z,16.65
2023-01-02T08:26:16.870Z,15.95
2023-01-02T08:28:44.795Z,15.98
2023-01-02T08:31:14.486Z,16.67
2023-01-02T08:33:45.130Z,16.00
2023-01-02T08:36:14.698Z,17.42
2023-01-02T08:38:42.428Z,16.63
2023-01-02T08:41:09.555Z,16.83
2023-01-02T08:43:37.646Z,15.95
2023-01-02T08:46:06.666Z,16.05
2023-01-02T08:48:35.023Z,18.10
2023-01-02T08:51:04.154Z,18.48
2023-01-02T08:53:31.438Z,17.92
2023-01-02T08:56:21.119Z,18.08
2023-01-02T08:58:56.338Z,17.02
2023-01-02T09:01:25.297Z,16.85
2023-01-02T09:03:52.852Z,17.45
2023-01-02T09:06:22.267Z,16.27
2023-01-02T09:08:55.619Z,19.05
2023-01-02T09:11:28.519Z,17.73
2023-01-02T09:13:57.300Z,17.77
2023-01-02T09:16:25.173Z,18.08
2023-01-02T09:18:53.361Z,19.17
2023-01-02T09:21:20.866Z,18.02
2023-01-02T09:23:48.334Z,15.40
2023-01-02T09:26:15.730Z,16.75
2023-01-02T09:28:43.173Z,16.90
2023-01-02T09:31:15.957Z,16.48
2023-01-02T09:36:13.137Z,14.63
2023-01-02T09:38:40.625Z,16.02
2023-01-02T09:41:35.630Z,15.95
2023-01-02T09:44:22.433Z,16.55
2023-01-02T09:46:54.614Z,16.27
2023-01-02T09:49:42.576Z,18.58
2023-01-02T09:52:24.403Z,19.77
2023-01-02T09:54:51.713Z,18.77
2023-01-02T09:57:28.254Z,15.55
2023-01-02T10:00:04.261Z,17.75
2023-01-02T10:03:08.034Z,17.85
2023-01-02T10:08:14.965Z,16.55
2023-01-02T10:11:05.895Z,18.70
2023-01-02T10:16:41.323Z,19.35
2023-01-02T10:19:37.706Z,18.98
2023-01-02T10:22:08.242Z,21.27
2023-01-02T10:24:35.344Z,20.42
2023-01-02T10:27:06.446Z,19.08
2023-01-02T10:29:45.052Z,21.50
2023-01-02T10:32:23.255Z,21.88
2023-01-02T10:35:09.640Z,22.63
2023-01-02T10:37:37.218Z,19.33
2023-01-02T10:40:05.458Z,20.23
2023-01-02T10:42:34.179Z,20.45
2023-01-02T10:45:01.706Z,21.85
2023-01-02T10:47:35.932Z,20.67
2023-01-02T10:50:06.985Z,19.20
2023-01-02T10:53:05.155Z,20.67
2023-01-02T10:55:39.448Z,19.55
2023-01-02T10:58:23.051Z,19.50
2023-01-02T11:01:18.636Z,22.23
2023-01-02T11:04:11.203Z,22.23
2023-01-02T11:07:23.583Z,18.75
2023-01-02T11:09:57.679Z,18.15
2023-01-02T11:12:27.464Z,19.13
2023-01-02T11:15:11.838Z,21.33
2023-01-02T11:17:43.702Z,20.00
2023-01-02T11:20:34.362Z,20.08
2023-01-02T11:23:04.188Z,16.45
2023-01-02T11:25:41.111Z,16.30
2023-01-02T11:28:16.981Z,14.23
2023-01-02T11:30:50.721Z,15.05
2023-01-02T11:33:21.584Z,14.98
2023-01-02T11:35:52.243Z,14.68
2023-01-02T11:38:29.946Z,15.48
2023-01-02T11:41:01.389Z,13.60
2023-01-02T11:43:49.165Z,15.05
2023-01-02T11:46:37.828Z,13.57
2023-01-02T11:49:11.728Z,13.00
2023-01-02T11:51:41.471Z,13.55
2023-01-02T11:54:23.656Z,13.43
2023-01-02T11:56:52.259Z,14.13
2023-01-02T11:59:28.487Z,12.52
2023-01-02T12:02:00.953Z,12.63
2023-01-02T12:04:28.857Z,11.30
2023-01-02T12:07:11.118Z,12.25
2023-01-02T12:09:40.973Z,11.05
2023-01-02T12:12:35.267Z,11.60
2023-01-02T12:15:08.215Z,10.85
2023-01-02T12:17:47.175Z,12.93
2023-01-02T12:20:17.758Z,10.60
2023-01-02T12:23:06.328Z,9.75
2023-01-02T12:25:58.085Z,18.42
2023-01-02T12:29:46.147Z,18.60
2023-01-02T12:32:30.032Z,20.10
2023-01-02T12:35:41.525Z,25.27
2023-01-02T12:38:10.908Z,23.23
2023-01-02T12:41:05.663Z,19.67
2023-01-02T12:44:08.412Z,21.58
2023-01-02T12:47:13.445Z,20.90
2023-01-02T12:50:07.807Z,24.33
2023-01-02T12:52:41.191Z,22.50
2023-01-02T12:55:45.856Z,18.90
2023-01-02T12:58:37.848Z,19.60
2023-01-02T13:01:36.799Z,22.05
2023-01-02T13:04:20.317Z,20.40
2023-01-02T13:07:03.672Z,20.45
2023-01-02T13:09:40.907Z,22.48
2023-01-02T13:12:11.426Z,22.13
2023-01-02T13:14:41.457Z,22.90
2023-01-02T13:17:25.927Z,21.67
2023-01-02T13:20:35.162Z,20.98
2023-01-02T13:23:22.787Z,22.08
2023-01-02T13:26:24.912Z,20.10
2023-01-02T13:28:55.306Z,22.13
2023-01-02T13:34:31.452Z,22.88
2023-01-02T13:37:12.902Z,26.63
2023-01-02T13:39:39.884Z,24.67
2023-01-02T13:42:28.393Z,26.85
2023-01-02T13:44:59.336Z,59.80
2023-01-02T13:47:34.337Z,38.95
2023-01-02T13:50:30.151Z,52.00
2023-01-02T13:53:06.441Z,40.70
2023-01-02T13:55:40.826Z,30.00
2023-01-02T13:58:18.158Z,34.30
2023-01-02T14:00:56.136Z,27.80
2023-01-02T14:03:23.865Z,34.03
2023-01-02T14:05:59.802Z,22.35
2023-01-02T14:09:05.608Z,23.27
2023-01-02T14:11:56.841Z,22.40
2023-01-02T14:14:29.931Z,20.95
2023-01-02T14:17:15.863Z,21.38
2023-01-02T14:19:44.400Z,23.20
2023-01-02T14:22:16.707Z,23.08
2023-01-02T14:24:49.295Z,22.27
2023-01-02T14:27:16.659Z,20.48
2023-01-02T14:29:56.621Z,22.58
2023-01-02T14:32:23.823Z,24.05
2023-01-02T14:34:56.786Z,39.35
2023-01-02T14:37:43.744Z,40.67
2023-01-02T14:40:23.288Z,26.65
2023-01-02T14:43:16.088Z,25.30
2023-01-02T14:45:47.794Z,27.30
2023-01-02T14:48:28.636Z,23.88
2023-01-02T14:51:09.197Z,22.77
2023-01-02T14:53:42.416Z,24.08
2023-01-02T14:56:16.247Z,22.67
2023-01-02T14:58:48.807Z,22.35
2023-01-02T15:01:41.641Z,20.50
2023-01-02T15:04:19.467Z,20.92
2023-01-02T15:07:10.575Z,20.08
2023-01-02T15:09:43.968Z,19.35
2023-01-02T15:12:43.502Z,20.80
2023-01-02T15:15:19.433Z,20.00
2023-01-02T15:17:48.740Z,20.75
2023-01-02T15:20:25.676Z,21.20
2023-01-02T15:22:54.584Z,20.58
2023-01-02T15:25:41.569Z,22.20
2023-01-02T15:28:27.414Z,23.48
2023-01-02T15:31:04.959Z,26.60
2023-01-02T15:33:34.022Z,26.00
2023-01-02T15:36:14.146Z,26.90
2023-01-02T15:38:42.953Z,24.02
2023-01-02T15:41:18.106Z,23.02
2023-01-02T15:44:05.033Z,25.05
2023-01-02T15:46:32.425Z,25.48
2023-01-02T15:49:00.414Z,26.23
2023-01-02T15:51:40.260Z,27.38
2023-01-02T15:54:18.829Z,30.23
2023-01-02T15:56:46.021Z,35.28
2023-01-02T15:59:33.905Z,38.28
2023-01-02T16:02:02.836Z,32.20
2023-01-02T16:04:32.795Z,36.67
2023-01-02T16:07:15.144Z,36.97
2023-01-02T16:09:52.555Z,33.50
2023-01-02T16:12:22.083Z,31.63
2023-01-02T16:14:55.571Z,33.10
2023-01-02T16:17:27.717Z,32.60
2023-01-02T16:20:00.098Z,31.38
2023-01-02T16:22:43.895Z,32.03
2023-01-02T16:25:20.357Z,33.35
2023-01-02T16:27:59.158Z,31.45
2023-01-02T16:30:32.769Z,33.50
2023-01-02T16:33:24.631Z,31.50
2023-01-02T16:36:00.736Z,32.00
2023-01-02T16:38:29.134Z,66.57
2023-01-02T16:41:08.629Z,41.83
2023-01-02T16:43:43.126Z,29.80
2023-01-02T16:46:15.256Z,40.88
2023-01-02T16:48:44.016Z,35.35
2023-01-02T16:51:14.915Z,36.97
2023-01-02T16:53:43.937Z,35.53
2023-01-02T16:56:12.347Z,36.72
2023-01-02T16:58:39.913Z,47.40
2023-01-02T17:01:11.944Z,54.10
2023-01-02T17:03:39.296Z,38.83
2023-01-02T17:06:19.177Z,38.95
2023-01-02T17:08:46.283Z,40.03
2023-01-02T17:11:17.065Z,38.50
2023-01-02T17:13:44.581Z,42.33
2023-01-02T17:16:11.882Z,46.65
2023-01-02T17:18:39.142Z,45.17
2023-01-02T17:21:06.363Z,40.67
2023-01-02T17:23:33.748Z,39.85
2023-01-02T17:26:04.050Z,37.45
2023-01-02T17:28:31.385Z,40.40
2023-01-02T17:30:58.790Z,39.88
2023-01-02T17:33:25.990Z,35.22
2023-01-02T17:35:53.210Z,38.58
2023-01-02T17:38:20.651Z,33.63
2023-01-02T17:40:47.726Z,37.55
2023-01-02T17:43:17.969Z,39.10
2023-01-02T17:45:45.191Z,36.63
2023-01-02T17:48:15.278Z,41.72
2023-01-02T17:50:46.193Z,39.80
2023-01-02T17:53:13.350Z,39.13
2023-01-02T17:55:40.776Z,36.90
2023-01-02T17:58:08.042Z,41.65
2023-01-02T18:00:35.247Z,42.22
2023-01-02T18:03:02.645Z,41.63
2023-01-02T18:05:30.090Z,43.53
2023-01-02T18:07:57.372Z,42.38
2023-01-02T18:10:29.192Z,42.95
2023-01-02T18:12:59.968Z,44.58
2023-01-02T18:15:28.615Z,49.40
2023-01-02T18:17:56.336Z,45.22
2023-01-02T18:20:23.884Z,41.80
2023-01-02T18:22:51.288Z,44.83
2023-01-02T18:25:27.574Z,43.63
2023-01-02T18:28:23.533Z,44.08
2023-01-02T18:30:59.704Z,44.38
2023-01-02T18:33:28.745Z,45.90
2023-01-02T18:36:02.809Z,39.45
2023-01-02T18:38:38.235Z,37.72
2023-01-02T18:41:18.802Z,37.40
2023-01-02T18:43:48.687Z,36.38
2023-01-02T18:46:22.340Z,37.03
2023-01-02T18:48:50.031Z,33.72
2023-01-02T18:51:24.367Z,36.25
2023-01-02T18:53:58.830Z,33.95
2023-01-02T18:56:31.236Z,33.95
2023-01-02T18:59:30.549Z,36.88
2023-01-02T19:02:03.101Z,34.30
2023-01-02T19:04:37.232Z,39.83
2023-01-02T19:07:33.360Z,35.15
2023-01-02T19:10:09.958Z,36.72
2023-01-02T19:13:07.636Z,36.55
2023-01-02T19:15:46.703Z,33.75
2023-01-02T19:18:33.921Z,33.38
2023-01-02T19:21:13.367Z,33.25
2023-01-02T19:24:05.671Z,35.30
2023-01-02T19:26:33.411Z,33.92
2023-01-02T19:29:09.800Z,34.45
2023-01-02T19:31:37.251Z,33.72
2023-01-02T19:34:38.705Z,34.10
2023-01-02T19:37:12.641Z,34.35
2023-01-02T19:39:53.120Z,37.00
2023-01-02T19:42:23.725Z,34.63
2023-01-02T19:44:59.449Z,31.83
2023-01-02T19:47:29.588Z,35.05
2023-01-02T19:49:57.566Z,33.88
2023-01-02T19:52:28.356Z,34.40
2023-01-02T19:54:56.854Z,33.22
2023-01-02T19:57:25.959Z,34.40
2023-01-02T19:59:56.268Z,32.08
2023-01-02T20:02:25.640Z,38.40
2023-01-02T20:04:56.047Z,41.67
2023-01-02T20:07:27.336Z,36.53
2023-01-02T20:09:55.167Z,38.80
2023-01-02T20:12:38.519Z,36.03
2023-01-02T20:15:27.672Z,35.13
2023-01-02T20:17:55.844Z,40.22
2023-01-02T20:20:26.679Z,38.25
2023-01-02T20:22:55.594Z,39.70
2023-01-02T20:25:26.400Z,38.47
2023-01-02T20:27:56.553Z,39.75
2023-01-02T20:30:26.311Z,37.83
2023-01-02T20:32:55.484Z,38.50
2023-01-02T20:35:23.664Z,38.15
2023-01-02T20:37:51.966Z,41.20
2023-01-02T20:40:20.525Z,40.72
2023-01-02T20:42:50.326Z,35.72
2023-01-02T20:45:18.597Z,35.88
2023-01-02T20:47:47.985Z,35.92
2023-01-02T20:50:16.519Z,35.80
2023-01-02T20:52:45.882Z,35.15
2023-01-02T20:55:14.193Z,35.78
2023-01-02T20:57:42.421Z,36.03
2023-01-02T21:00:31.629Z,38.28
2023-01-02T21:02:59.816Z,37.42
2023-01-02T21:05:27.766Z,37.35
2023-01-02T21:07:58.098Z,36.38
2023-01-02T21:10:26.171Z,36.92
2023-01-02T21:13:14.742Z,40.45
2023-01-02T21:15:46.442Z,34.10
2023-01-02T21:18:26.527Z,37.07
2023-01-02T21:21:05.897Z,37.67
2023-01-02T21:23:37.218Z,34.75
2023-01-02T21:26:07.063Z,35.92
2023-01-02T21:28:35.040Z,39.95
2023-01-02T21:31:02.996Z,35.65
2023-01-02T21:33:30.698Z,38.75
2023-01-02T21:36:00.205Z,37.17
2023-01-02T21:38:28.466Z,40.13
2023-01-02T21:41:16.496Z,37.30
2023-01-02T21:43:43.671Z,37.15
2023-01-02T21:46:11.251Z,36.08
2023-01-02T21:48:38.581Z,34.50
2023-01-02T21:51:06.833Z,31.05
2023-01-02T21:53:35.009Z,32.78
2023-01-02T21:56:02.519Z,35.75
2023-01-02T21:58:29.710Z,33.05
2023-01-02T22:00:57.142Z,32.97
2023-01-02T22:03:24.481Z,34.63
2023-01-02T22:05:51.911Z,33.15
2023-01-02T22:08:19.089Z,35.10
2023-01-02T22:10:46.221Z,32.92
2023-01-02T22:13:13.334Z,35.58
2023-01-02T22:15:42.807Z,35.72
2023-01-02T22:18:13.374Z,33.78
2023-01-02T22:20:40.748Z,34.05
2023-01-02T22:23:07.945Z,38.65
2023-01-02T22:25:35.861Z,32.33
2023-01-02T22:28:02.991Z,33.45
2023-01-02T22:30:34.560Z,34.53
2023-01-02T22:33:03.095Z,32.03
2023-01-02T22:35:30.365Z,35.13
2023-01-02T22:37:59.715Z,34.47
2023-01-02T22:40:29.014Z,33.78
2023-01-02T22:43:02.884Z,33.67
2023-01-02T22:45:35.720Z,32.65
2023-01-02T22:48:06.591Z,34.22
2023-01-02T22:50:44.643Z,30.75
2023-01-02T22:53:20.852Z,33.28
2023-01-02T22:55:48.810Z,33.65
2023-01-02T22:58:16.302Z,38.28
2023-01-02T23:00:44.479Z,34.15
2023-01-02T23:03:16.187Z,33.45
2023-01-02T23:05:43.527Z,34.17
2023-01-02T23:08:10.713Z,35.97
2023-01-02T23:10:37.982Z,29.80
2023-01-02T23:13:05.101Z,28.90
2023-01-02T23:15:32.192Z,28.88
2023-01-02T23:18:17.581Z,27.98
2023-01-02T23:20:47.513Z,26.20
2023-01-02T23:23:14.647Z,25.30
2023-01-02T23:25:43.645Z,27.35
2023-01-02T23:28:20.489Z,28.02
2023-01-02T23:30:58.090Z,27.25
2023-01-02T23:33:25.272Z,26.70
2023-01-02T23:35:52.847Z,25.67
2023-01-02T23:38:20.348Z,27.65
2023-01-02T23:40:47.480Z,28.33
2023-01-02T23:43:14.726Z,26.52
2023-01-02T23:45:42.176Z,27.23
2023-01-02T23:48:09.292Z,25.73
2023-01-02T23:50:36.402Z,27.50
2023-01-02T23:53:03.537Z,29.38
2023-01-02T23:55:30.725Z,26.15
2023-01-02T23:57:57.920Z,26.50
